Time;durP1;ratioP1;P1;durP2;ratioP2;P2;SDS_P1;SDS_P2;PMS_P1;PMS_P2;Temp;Humidity;BMP_temperature;BMP_pressure;BME280_temperature;BME280_humidity;BME280_pressure;Samples;Min_cycle;Max_cycle;Signal;HPM_P1;HPM_P2
2022/01/09 00:02:24;;;;;;;4.90;0.98;;;8.30;79.10;;;;;;4966679;28;20114;-78
2022/01/09 00:04:50;;;;;;;6.75;1.00;;;8.40;79.60;;;;;;4955324;28;20114;-78
2022/01/09 00:07:16;;;;;;;5.03;1.35;;;8.40;79.00;;;;;;4953764;28;20020;-78
2022/01/09 00:09:44;;;;;;;7.05;1.58;;;8.40;79.30;;;;;;4954888;28;20104;-78
2022/01/09 00:12:10;;;;;;;6.30;1.45;;;8.40;79.30;;;;;;4953372;28;20078;-78
2022/01/09 00:14:36;;;;;;;6.97;1.27;;;8.40;79.00;;;;;;4958682;28;20034;-78
2022/01/09 00:17:02;;;;;;;2.90;1.00;;;8.40;79.20;;;;;;4956879;28;20019;-78
2022/01/09 00:19:28;;;;;;;7.15;1.30;;;8.40;79.30;;;;;;4953609;28;20027;-78
2022/01/09 00:21:54;;;;;;;7.45;1.30;;;8.40;79.00;;;;;;4953771;28;20027;-78
2022/01/09 00:24:19;;;;;;;6.50;1.77;;;8.30;78.80;;;;;;4954744;28;20406;-78
2022/01/09 00:26:45;;;;;;;6.80;1.20;;;8.30;79.10;;;;;;4950796;28;20496;-78
2022/01/09 00:29:11;;;;;;;6.63;1.20;;;8.30;79.10;;;;;;4956765;28;20495;-78
2022/01/09 00:31:37;;;;;;;10.02;1.42;;;8.30;79.20;;;;;;4954736;28;20059;-78
2022/01/09 00:34:03;;;;;;;5.45;1.10;;;8.30;79.40;;;;;;4953138;28;20423;-78
2022/01/09 00:36:30;;;;;;;8.27;1.33;;;8.30;79.00;;;;;;4954926;28;20026;-78
2022/01/09 00:38:56;;;;;;;7.55;1.27;;;8.30;79.20;;;;;;4951533;28;20115;-78
2022/01/09 00:41:22;;;;;;;6.53;1.05;;;8.30;79.10;;;;;;4953874;28;20110;-78
2022/01/09 00:43:48;;;;;;;5.05;1.48;;;8.30;79.40;;;;;;4954411;28;20093;-78
2022/01/09 00:46:13;;;;;;;6.70;1.35;;;8.40;79.60;;;;;;4954641;28;20517;-78
2022/01/09 00:48:39;;;;;;;6.80;1.40;;;8.40;79.20;;;;;;4954095;28;20109;-78
2022/01/09 00:51:05;;;;;;;6.03;1.17;;;8.30;79.30;;;;;;4951006;28;20419;-78
2022/01/09 00:53:31;;;;;;;6.45;1.10;;;8.40;79.30;;;;;;4952916;28;20031;-78
2022/01/09 00:55:56;;;;;;;8.05;1.23;;;8.30;78.70;;;;;;4954721;28;20032;-79
2022/01/09 00:58:22;;;;;;;5.22;1.35;;;8.30;79.30;;;;;;4954643;28;20024;-78
2022/01/09 01:00:47;;;;;;;5.90;1.15;;;8.40;79.40;;;;;;4954405;28;20577;-79
2022/01/09 01:03:13;;;;;;;7.22;1.40;;;8.40;79.60;;;;;;4953222;28;20478;-78
2022/01/09 01:05:39;;;;;;;6.43;1.10;;;8.40;78.90;;;;;;4949879;28;20536;-78
2022/01/09 01:08:05;;;;;;;4.15;1.10;;;8.40;78.80;;;;;;4955051;28;20076;-78
2022/01/09 01:10:30;;;;;;;8.40;1.05;;;8.30;78.80;;;;;;4952884;28;20039;-78
2022/01/09 01:12:56;;;;;;;9.40;1.20;;;8.30;78.70;;;;;;4954190;28;20412;-78
2022/01/09 01:15:22;;;;;;;6.75;1.23;;;8.30;78.90;;;;;;4961711;28;20077;-78
2022/01/09 01:17:48;;;;;;;6.13;1.30;;;8.30;79.20;;;;;;4950089;28;20027;-78
2022/01/09 01:20:14;;;;;;;7.45;0.95;;;8.30;79.20;;;;;;4956042;28;20480;-77
2022/01/09 01:22:41;;;;;;;7.07;1.17;;;8.30;79.10;;;;;;4953058;28;20038;-79
2022/01/09 01:25:07;;;;;;;7.13;1.40;;;8.30;79.20;;;;;;4953867;28;20024;-78
2022/01/09 01:27:33;;;;;;;7.28;1.30;;;8.30;79.30;;;;;;4953868;28;20030;-78
2022/01/09 01:29:58;;;;;;;4.93;1.05;;;8.30;79.20;;;;;;4949770;28;20046;-78
2022/01/09 01:32:25;;;;;;;5.20;0.95;;;8.40;79.30;;;;;;4953714;28;20034;-78
2022/01/09 01:34:51;;;;;;;5.88;1.02;;;8.40;79.30;;;;;;4954414;28;20122;-78
2022/01/09 01:37:16;;;;;;;7.18;1.48;;;8.40;79.30;;;;;;4952752;28;20100;-78
2022/01/09 01:39:42;;;;;;;8.20;1.30;;;8.50;79.40;;;;;;4952563;28;20106;-78
2022/01/09 01:42:07;;;;;;;6.10;1.30;;;8.50;79.40;;;;;;4952045;28;20499;-78
2022/01/09 01:44:42;;;;;;;4.10;0.80;;;8.50;79.20;;;;;;4950345;28;20037;-79
2022/01/09 01:47:08;;;;;;;6.07;0.93;;;8.50;79.20;;;;;;4954402;28;20011;-78
2022/01/09 01:49:33;;;;;;;5.25;1.02;;;8.60;79.10;;;;;;4953292;28;20062;-79
2022/01/09 01:51:59;;;;;;;6.22;1.08;;;8.50;79.10;;;;;;4952417;28;20509;-78
2022/01/09 01:54:27;;;;;;;6.03;1.10;;;8.50;78.70;;;;;;4953452;28;20051;-78
2022/01/09 01:56:52;;;;;;;4.45;1.00;;;8.60;79.10;;;;;;4950031;28;20027;-78
2022/01/09 01:59:18;;;;;;;3.20;0.80;;;8.60;78.90;;;;;;4955115;28;20035;-78
2022/01/09 02:01:43;;;;;;;5.78;0.68;;;8.60;79.10;;;;;;4951834;28;20072;-78
2022/01/09 02:04:09;;;;;;;5.18;0.90;;;8.70;79.70;;;;;;4953604;28;20020;-78
2022/01/09 02:06:36;;;;;;;4.78;0.98;;;8.70;78.80;;;;;;4953553;28;20502;-78
2022/01/09 02:09:05;;;;;;;6.53;1.00;;;8.70;78.80;;;;;;4949588;28;20096;-78
2022/01/09 02:11:32;;;;;;;4.43;1.00;;;8.70;78.60;;;;;;4951652;28;20043;-78
2022/01/09 02:13:58;;;;;;;4.60;0.90;;;8.80;78.50;;;;;;4959927;28;20073;-78
2022/01/09 02:16:24;;;;;;;6.80;1.00;;;8.80;78.80;;;;;;4955565;28;20415;-78
2022/01/09 02:18:51;;;;;;;6.50;0.93;;;8.80;78.70;;;;;;4953204;28;20027;-78
2022/01/09 02:21:17;;;;;;;6.45;1.10;;;8.90;78.80;;;;;;4951638;28;20437;-78
2022/01/09 02:23:45;;;;;;;5.07;0.85;;;9.00;78.50;;;;;;4949639;28;20039;-78
2022/01/09 02:26:19;;;;;;;6.93;1.10;;;8.90;78.50;;;;;;4955312;28;20030;-78
2022/01/09 02:28:46;;;;;;;6.63;1.08;;;8.90;78.70;;;;;;4957559;28;20125;-78
2022/01/09 02:31:11;;;;;;;4.50;0.90;;;9.00;79.00;;;;;;4957133;28;20035;-78
2022/01/09 02:33:37;;;;;;;10.30;1.08;;;8.90;78.80;;;;;;4953157;28;20380;-78
2022/01/09 02:36:03;;;;;;;4.60;1.10;;;8.90;79.20;;;;;;4950637;28;20027;-78
2022/01/09 02:38:29;;;;;;;6.07;1.00;;;8.90;79.20;;;;;;4952394;28;20058;-78
2022/01/09 02:40:55;;;;;;;6.25;0.93;;;8.90;79.10;;;;;;4954340;28;20042;-78
2022/01/09 02:43:22;;;;;;;3.72;0.98;;;8.80;79.30;;;;;;4953336;28;20097;-78
2022/01/09 02:45:54;;;;;;;5.30;1.13;;;8.80;79.70;;;;;;4952677;28;20077;-78
2022/01/09 02:48:20;;;;;;;5.53;1.00;;;8.80;79.70;;;;;;4952864;28;20055;-78
2022/01/09 02:51:03;;;;;;;6.47;0.82;;;8.80;79.60;;;;;;4948870;28;20129;-78
2022/01/09 02:53:33;;;;;;;5.20;0.90;;;8.80;79.80;;;;;;4962878;28;20122;-78
2022/01/09 02:55:59;;;;;;;5.28;0.98;;;8.80;79.80;;;;;;4954686;28;20117;-78
2022/01/09 02:58:24;;;;;;;6.85;1.15;;;8.80;79.80;;;;;;4952678;28;20429;-78
2022/01/09 03:00:50;;;;;;;7.07;1.00;;;8.70;79.60;;;;;;4952477;28;20034;-78
2022/01/09 03:03:16;;;;;;;6.18;1.17;;;8.60;79.50;;;;;;4950659;28;20023;-78
2022/01/09 03:05:42;;;;;;;5.47;0.90;;;8.60;79.90;;;;;;4950218;28;20456;-78
2022/01/09 03:08:08;;;;;;;7.50;1.10;;;8.70;80.50;;;;;;4956859;28;20122;-78
2022/01/09 03:10:34;;;;;;;7.20;1.20;;;8.70;80.50;;;;;;4955803;28;20077;-78
2022/01/09 03:13:00;;;;;;;5.30;1.15;;;8.70;80.20;;;;;;4955826;28;20051;-78
2022/01/09 03:15:26;;;;;;;4.75;0.98;;;8.80;80.40;;;;;;4962061;28;20034;-78
2022/01/09 03:17:52;;;;;;;5.72;0.80;;;8.80;80.00;;;;;;4952089;28;20428;-78
2022/01/09 03:20:23;;;;;;;7.15;1.10;;;8.80;79.70;;;;;;4957770;28;20039;-78
2022/01/09 03:22:49;;;;;;;5.28;1.17;;;8.90;80.30;;;;;;4954994;28;20075;-78
2022/01/09 03:25:15;;;;;;;5.80;1.13;;;8.90;79.90;;;;;;4955684;28;20102;-78
2022/01/09 03:27:45;;;;;;;4.93;1.13;;;9.00;79.90;;;;;;4955456;28;20118;-78
2022/01/09 03:30:11;;;;;;;4.85;0.68;;;9.00;79.80;;;;;;4954305;28;20039;-78
2022/01/09 03:32:39;;;;;;;4.22;0.90;;;9.00;79.60;;;;;;4951913;28;20035;-78
2022/01/09 03:35:11;;;;;;;3.90;1.08;;;8.90;79.30;;;;;;4957672;28;20072;-78
2022/01/09 03:37:38;;;;;;;5.60;0.80;;;8.80;79.50;;;;;;4955649;28;20035;-78
2022/01/09 03:40:05;;;;;;;6.70;1.50;;;8.80;79.50;;;;;;4955614;28;20023;-78
2022/01/09 03:42:31;;;;;;;7.75;1.15;;;8.90;80.10;;;;;;4953853;28;20415;-79
2022/01/09 03:44:56;;;;;;;8.32;1.50;;;8.90;79.90;;;;;;4952324;28;20031;-78
2022/01/09 03:47:22;;;;;;;7.03;1.20;;;8.90;80.10;;;;;;4954886;28;20149;-78
2022/01/09 03:49:50;;;;;;;5.20;1.05;;;8.90;79.90;;;;;;4955809;28;20391;-78
2022/01/09 03:52:16;;;;;;;6.90;1.48;;;8.90;79.40;;;;;;4954300;28;20031;-79
2022/01/09 03:54:42;;;;;;;3.97;1.20;;;9.00;80.20;;;;;;4951005;28;20038;-79
2022/01/09 03:57:07;;;;;;;7.38;1.33;;;8.90;79.70;;;;;;4954995;28;20035;-78
2022/01/09 03:59:33;;;;;;;9.38;1.25;;;8.90;79.50;;;;;;4953463;28;20539;-78
2022/01/09 04:01:59;;;;;;;5.78;1.10;;;8.80;79.50;;;;;;4959698;28;20031;-78
2022/01/09 04:04:24;;;;;;;5.65;0.75;;;8.80;79.90;;;;;;4955067;28;20311;-78
2022/01/09 04:06:50;;;;;;;6.50;1.10;;;8.90;80.20;;;;;;4955062;28;20023;-78
2022/01/09 04:09:27;;;;;;;6.55;1.17;;;8.90;79.70;;;;;;4954663;28;20018;-79
2022/01/09 04:12:02;;;;;;;6.70;1.10;;;8.90;79.70;;;;;;4936407;28;20067;-78
2022/01/09 04:14:27;;;;;;;6.18;1.30;;;8.90;79.70;;;;;;4954095;28;20042;-78
2022/01/09 04:16:53;;;;;;;5.00;1.00;;;8.90;79.60;;;;;;4953876;28;20063;-78
2022/01/09 04:19:19;;;;;;;6.28;1.10;;;8.90;79.90;;;;;;4954719;28;20023;-78
2022/01/09 04:21:45;;;;;;;9.25;1.38;;;9.00;80.50;;;;;;4954939;28;20092;-78
2022/01/09 04:24:10;;;;;;;5.20;0.85;;;9.00;80.20;;;;;;4953670;28;20517;-78
2022/01/09 04:26:37;;;;;;;5.22;1.13;;;8.90;80.20;;;;;;4952271;28;20103;-79
2022/01/09 04:29:03;;;;;;;7.40;1.60;;;9.00;80.10;;;;;;4955337;28;20031;-78
2022/01/09 04:31:29;;;;;;;5.82;1.20;;;8.90;80.10;;;;;;4953357;28;20097;-78
2022/01/09 04:33:55;;;;;;;7.55;1.25;;;8.80;79.80;;;;;;4954925;28;20031;-78
2022/01/09 04:36:20;;;;;;;5.20;1.52;;;8.80;80.30;;;;;;4953722;28;20031;-79
2022/01/09 04:38:46;;;;;;;4.38;0.90;;;8.80;80.20;;;;;;4942586;28;20476;-79
2022/01/09 04:41:12;;;;;;;7.22;1.42;;;8.80;80.90;;;;;;4956081;28;20031;-79
2022/01/09 04:43:37;;;;;;;4.65;1.00;;;8.80;80.20;;;;;;4954581;28;20031;-78
2022/01/09 04:46:03;;;;;;;5.50;1.00;;;8.80;80.40;;;;;;4954454;28;20027;-78
2022/01/09 04:48:29;;;;;;;6.53;0.98;;;8.80;80.20;;;;;;4954689;28;20022;-78
2022/01/09 04:50:56;;;;;;;5.47;1.20;;;8.80;80.40;;;;;;4949882;28;20043;-78
2022/01/09 04:53:21;;;;;;;6.47;1.20;;;8.90;80.60;;;;;;4955123;28;20023;-79
2022/01/09 04:55:49;;;;;;;4.63;1.00;;;8.90;80.70;;;;;;4954731;28;20035;-78
2022/01/09 04:58:16;;;;;;;5.40;0.90;;;8.80;80.30;;;;;;4954476;28;20045;-78
2022/01/09 05:00:42;;;;;;;1.58;0.43;;;8.90;80.50;;;;;;4954456;28;20097;-78
2022/01/09 05:03:09;;;;;;;5.05;0.85;;;8.90;80.80;;;;;;4951329;28;20427;-78
2022/01/09 05:05:36;;;;;;;5.47;0.70;;;8.90;80.20;;;;;;4951597;28;20059;-78
2022/01/09 05:08:02;;;;;;;4.35;0.73;;;8.90;80.20;;;;;;4955021;28;20030;-77
2022/01/09 05:10:27;;;;;;;6.80;1.15;;;8.90;80.50;;;;;;4953740;28;20039;-77
2022/01/09 05:12:53;;;;;;;5.07;0.82;;;8.80;79.90;;;;;;4954071;28;20047;-78
2022/01/09 05:15:19;;;;;;;4.75;0.88;;;8.80;80.10;;;;;;4961434;28;20399;-78
2022/01/09 05:17:46;;;;;;;4.80;0.90;;;8.80;80.60;;;;;;4949953;28;20027;-78
2022/01/09 05:20:12;;;;;;;5.72;0.70;;;8.80;80.50;;;;;;4956099;28;20341;-78
2022/01/09 05:22:38;;;;;;;4.65;0.88;;;8.80;80.60;;;;;;4953930;28;20027;-78
2022/01/09 05:25:08;;;;;;;4.15;0.73;;;8.70;80.10;;;;;;4953749;28;20449;-78
2022/01/09 05:27:35;;;;;;;2.25;0.63;;;8.70;80.20;;;;;;4953803;28;20023;-78
2022/01/09 05:30:02;;;;;;;3.03;0.70;;;8.60;80.40;;;;;;4950946;28;20466;-78
2022/01/09 05:32:27;;;;;;;6.90;0.80;;;8.50;80.20;;;;;;4952718;28;20593;-78
2022/01/09 05:34:53;;;;;;;3.90;0.77;;;8.60;80.90;;;;;;4954887;28;20159;-78
2022/01/09 05:37:19;;;;;;;3.50;0.70;;;8.60;80.50;;;;;;4953961;28;20069;-78
2022/01/09 05:39:44;;;;;;;3.55;0.70;;;8.60;80.40;;;;;;4953541;28;20028;-78
2022/01/09 05:42:12;;;;;;;5.43;0.80;;;8.50;80.60;;;;;;4952435;28;20075;-78
2022/01/09 05:44:37;;;;;;;3.75;0.73;;;8.50;80.60;;;;;;4950714;28;20032;-78
2022/01/09 05:47:03;;;;;;;3.95;1.00;;;8.50;80.60;;;;;;4955523;28;20027;-78
2022/01/09 05:49:29;;;;;;;3.55;0.65;;;8.50;80.80;;;;;;4952383;28;20039;-78
2022/01/09 05:51:55;;;;;;;2.95;0.77;;;8.50;80.80;;;;;;4953806;28;20035;-78
2022/01/09 05:54:21;;;;;;;4.65;0.68;;;8.50;80.70;;;;;;4953287;28;20030;-78
2022/01/09 05:56:47;;;;;;;2.17;0.60;;;8.50;80.90;;;;;;4949639;28;20114;-78
2022/01/09 05:59:13;;;;;;;7.72;0.82;;;8.60;81.10;;;;;;4955539;28;20026;-78
2022/01/09 06:01:38;;;;;;;4.43;0.90;;;8.60;80.70;;;;;;4953451;28;20126;-78
2022/01/09 06:04:05;;;;;;;5.57;0.88;;;8.60;80.80;;;;;;4953497;28;20518;-78
2022/01/09 06:06:34;;;;;;;7.10;1.33;;;8.60;80.60;;;;;;4952314;28;20031;-78
2022/01/09 06:08:59;;;;;;;4.45;0.98;;;8.60;81.10;;;;;;4950753;28;20083;-78
2022/01/09 06:11:25;;;;;;;3.40;0.80;;;8.60;80.90;;;;;;4952808;28;20031;-78
2022/01/09 06:13:50;;;;;;;2.03;0.68;;;8.70;80.80;;;;;;4958003;28;20030;-78
2022/01/09 06:16:16;;;;;;;3.65;0.60;;;8.70;81.10;;;;;;4956975;28;20029;-78
2022/01/09 06:18:41;;;;;;;5.40;0.70;;;8.60;80.30;;;;;;4953261;28;20024;-76
2022/01/09 06:21:07;;;;;;;6.25;1.02;;;8.60;80.90;;;;;;4951777;28;20059;-79
2022/01/09 06:23:33;;;;;;;4.82;0.80;;;8.60;80.60;;;;;;4949083;28;20340;-77
2022/01/09 06:25:58;;;;;;;4.35;0.88;;;8.60;80.30;;;;;;4951893;28;20039;-77
2022/01/09 06:28:24;;;;;;;4.53;1.05;;;8.50;80.60;;;;;;4951924;28;20106;-77
2022/01/09 06:30:50;;;;;;;4.45;0.77;;;8.50;81.30;;;;;;4953119;28;20161;-78
2022/01/09 06:33:16;;;;;;;4.68;0.77;;;8.60;80.90;;;;;;4951578;28;20019;-78
2022/01/09 06:35:44;;;;;;;2.60;0.73;;;8.60;81.10;;;;;;4949655;28;20066;-78
2022/01/09 06:38:10;;;;;;;3.75;0.90;;;8.70;81.50;;;;;;4954595;28;20027;-78
2022/01/09 06:40:36;;;;;;;4.25;0.70;;;8.70;81.00;;;;;;4952536;28;20396;-78
2022/01/09 06:43:02;;;;;;;4.25;0.90;;;8.70;80.60;;;;;;4956223;28;20033;-78
2022/01/09 06:45:27;;;;;;;4.45;0.80;;;8.60;80.40;;;;;;4956461;28;20027;-77
2022/01/09 06:47:55;;;;;;;4.45;0.77;;;8.60;80.90;;;;;;4951178;28;20035;-77
2022/01/09 06:50:21;;;;;;;7.25;1.10;;;8.60;81.00;;;;;;4956974;28;20051;-77
2022/01/09 06:52:47;;;;;;;4.88;0.70;;;8.70;81.40;;;;;;4955182;28;20510;-78
2022/01/09 06:55:14;;;;;;;5.05;0.80;;;8.70;80.80;;;;;;4955543;28;20054;-77
2022/01/09 06:57:40;;;;;;;3.67;0.80;;;8.80;81.60;;;;;;4955702;28;20034;-77
2022/01/09 07:00:08;;;;;;;6.72;0.90;;;8.70;80.80;;;;;;4954152;28;20077;-76
2022/01/09 07:02:34;;;;;;;3.55;0.80;;;8.70;80.70;;;;;;4953446;28;20387;-77
2022/01/09 07:05:00;;;;;;;4.47;1.00;;;8.60;80.50;;;;;;4957821;28;20600;-77
2022/01/09 07:07:25;;;;;;;3.88;0.77;;;8.60;80.80;;;;;;4956147;28;20020;-77
2022/01/09 07:09:51;;;;;;;3.33;0.80;;;8.60;80.40;;;;;;4954251;28;20085;-77
2022/01/09 07:12:17;;;;;;;3.97;0.70;;;8.50;80.80;;;;;;4955225;28;20050;-77
2022/01/09 07:14:43;;;;;;;2.38;0.68;;;8.50;82.10;;;;;;4959645;28;20115;-77
2022/01/09 07:17:10;;;;;;;5.95;0.90;;;8.50;80.90;;;;;;4957630;28;20023;-77
2022/01/09 07:19:37;;;;;;;4.38;0.68;;;8.50;81.10;;;;;;4955422;28;20055;-77
2022/01/09 07:22:03;;;;;;;2.60;0.77;;;8.60;81.30;;;;;;4955927;28;20024;-78
2022/01/09 07:24:29;;;;;;;3.88;0.80;;;8.60;81.10;;;;;;4955746;28;20030;-77
2022/01/09 07:26:55;;;;;;;4.97;0.98;;;8.70;80.90;;;;;;4950654;28;20404;-77
2022/01/09 07:29:20;;;;;;;5.05;0.77;;;8.70;81.00;;;;;;4951638;28;20068;-78
2022/01/09 07:31:46;;;;;;;6.60;1.00;;;8.70;81.20;;;;;;4950858;28;20035;-77
2022/01/09 07:34:11;;;;;;;4.65;0.88;;;8.70;80.80;;;;;;4950214;28;20026;-77
2022/01/09 07:36:37;;;;;;;3.92;1.48;;;8.70;80.70;;;;;;4951211;28;20112;-78
2022/01/09 07:39:03;;;;;;;5.10;0.85;;;8.60;80.80;;;;;;4950397;28;20032;-78
2022/01/09 07:41:29;;;;;;;3.03;0.57;;;8.60;80.80;;;;;;4950646;28;20511;-78
2022/01/09 07:43:54;;;;;;;4.28;0.70;;;8.50;80.80;;;;;;4951626;28;20094;-78
2022/01/09 07:46:20;;;;;;;4.47;0.90;;;8.60;81.30;;;;;;4954440;28;20138;-78
2022/01/09 07:48:45;;;;;;;3.03;0.77;;;8.60;80.90;;;;;;4954197;28;20031;-77
2022/01/09 07:51:11;;;;;;;6.40;1.05;;;8.70;81.30;;;;;;4952727;28;20069;-77
2022/01/09 07:53:37;;;;;;;5.78;1.27;;;8.60;81.00;;;;;;4952402;28;20077;-77
2022/01/09 07:56:05;;;;;;;4.78;0.88;;;8.50;80.90;;;;;;4956054;28;20122;-77
2022/01/09 07:58:31;;;;;;;8.18;1.95;;;8.50;80.90;;;;;;4955161;28;20480;-77
2022/01/09 08:00:57;;;;;;;6.32;1.80;;;8.50;81.30;;;;;;4955245;28;20057;-77
2022/01/09 08:03:22;;;;;;;7.70;2.20;;;8.50;81.40;;;;;;4954498;28;20506;-77
2022/01/09 08:05:48;;;;;;;4.82;1.23;;;8.60;81.50;;;;;;4951165;28;20035;-76
2022/01/09 08:08:14;;;;;;;6.30;1.25;;;8.70;81.40;;;;;;4957043;28;20032;-76
2022/01/09 08:10:39;;;;;;;6.38;1.20;;;8.60;81.20;;;;;;4956213;28;20089;-75
2022/01/09 08:13:05;;;;;;;5.22;1.00;;;8.60;81.20;;;;;;4955120;28;20035;-76
2022/01/09 08:15:31;;;;;;;4.57;0.93;;;8.50;81.20;;;;;;4962494;28;20039;-76
2022/01/09 08:17:56;;;;;;;5.90;1.20;;;8.60;81.20;;;;;;4951449;28;20058;-76
2022/01/09 08:20:23;;;;;;;5.95;1.25;;;8.60;81.60;;;;;;4953834;28;20031;-76
2022/01/09 08:22:49;;;;;;;5.30;1.27;;;8.60;81.50;;;;;;4954464;28;20027;-76
2022/01/09 08:25:16;;;;;;;6.93;1.00;;;8.60;81.90;;;;;;4954861;28;20114;-76
2022/01/09 08:27:43;;;;;;;4.85;1.15;;;8.60;81.70;;;;;;4954834;28;20027;-77
2022/01/09 08:30:11;;;;;;;4.75;0.90;;;8.70;81.60;;;;;;4953145;28;20532;-77
2022/01/09 08:32:37;;;;;;;4.10;1.08;;;8.60;81.30;;;;;;4951697;28;20024;-76
2022/01/09 08:35:03;;;;;;;4.50;1.20;;;8.60;81.90;;;;;;4956568;28;20038;-76
2022/01/09 08:37:29;;;;;;;5.78;0.90;;;8.70;81.90;;;;;;4954581;28;20028;-77
2022/01/09 08:39:55;;;;;;;4.90;1.05;;;8.80;82.20;;;;;;4954773;28;20097;-76
2022/01/09 08:42:20;;;;;;;7.30;0.98;;;8.90;81.70;;;;;;4953328;28;20022;-77
2022/01/09 08:44:46;;;;;;;7.70;2.00;;;8.90;81.60;;;;;;4950576;28;20035;-76
2022/01/09 08:47:12;;;;;;;6.57;1.63;;;8.80;81.10;;;;;;4956155;28;20027;-76
2022/01/09 08:49:37;;;;;;;7.82;1.40;;;8.80;81.10;;;;;;4954482;28;20058;-76
2022/01/09 08:52:03;;;;;;;6.22;1.60;;;8.90;81.40;;;;;;4954624;28;20396;-76
2022/01/09 08:54:30;;;;;;;6.30;1.33;;;8.90;81.90;;;;;;4954366;28;20034;-76
2022/01/09 08:56:56;;;;;;;5.68;1.67;;;9.00;82.20;;;;;;4950009;28;20032;-76
2022/01/09 08:59:22;;;;;;;5.18;1.27;;;9.10;81.40;;;;;;4954874;28;20031;-76
2022/01/09 09:01:48;;;;;;;6.88;1.45;;;9.20;81.50;;;;;;4953302;28;20030;-76
2022/01/09 09:04:14;;;;;;;3.63;0.98;;;9.10;80.60;;;;;;4951969;28;20027;-76
2022/01/09 09:06:40;;;;;;;4.78;1.13;;;9.00;80.90;;;;;;4954614;28;20027;-76
2022/01/09 09:09:06;;;;;;;3.72;1.20;;;9.10;81.50;;;;;;4951007;28;20023;-76
2022/01/09 09:11:32;;;;;;;5.75;1.23;;;9.20;81.60;;;;;;4951941;28;20035;-76
2022/01/09 09:13:58;;;;;;;6.47;1.48;;;9.20;81.40;;;;;;4960486;28;20498;-76
2022/01/09 09:16:23;;;;;;;4.03;1.10;;;9.20;81.60;;;;;;4956140;28;20451;-78
2022/01/09 09:18:50;;;;;;;7.32;1.30;;;9.30;81.30;;;;;;4954310;28;20526;-76
2022/01/09 09:21:16;;;;;;;3.88;1.08;;;9.30;81.20;;;;;;4953392;28;20023;-76
2022/01/09 09:23:42;;;;;;;5.63;1.20;;;9.40;81.40;;;;;;4950718;28;20226;-77
2022/01/09 09:26:09;;;;;;;5.95;1.10;;;9.50;81.70;;;;;;4955989;28;20031;-76
2022/01/09 09:28:36;;;;;;;7.18;1.30;;;9.60;80.90;;;;;;4953743;28;20483;-76
2022/01/09 09:31:02;;;;;;;4.78;1.20;;;9.70;81.10;;;;;;4953388;28;20487;-77
2022/01/09 09:33:28;;;;;;;5.72;1.20;;;10.00;82.70;;;;;;4953891;28;20019;-77
2022/01/09 09:35:54;;;;;;;8.02;1.40;;;10.30;81.30;;;;;;4950373;28;20121;-76
2022/01/09 09:38:19;;;;;;;4.65;1.27;;;10.40;79.80;;;;;;4955088;28;20545;-77
2022/01/09 09:40:45;;;;;;;4.90;1.40;;;10.40;79.60;;;;;;4954113;28;20035;-77
2022/01/09 09:43:11;;;;;;;6.22;1.30;;;10.40;80.00;;;;;;4953850;28;20019;-77
2022/01/09 09:45:37;;;;;;;5.60;1.25;;;10.30;79.00;;;;;;4953033;28;20092;-77
2022/01/09 09:48:03;;;;;;;4.82;1.20;;;10.20;78.80;;;;;;4951020;28;20023;-77
2022/01/09 09:50:28;;;;;;;7.18;1.60;;;10.10;79.10;;;;;;4952768;28;20047;-77
2022/01/09 09:52:54;;;;;;;5.05;1.02;;;10.10;79.80;;;;;;4953698;28;20396;-77
2022/01/09 09:55:20;;;;;;;5.63;1.15;;;10.20;79.60;;;;;;4952742;28;20446;-77
2022/01/09 09:57:46;;;;;;;6.25;1.30;;;10.10;79.40;;;;;;4953427;28;20118;-77
2022/01/09 10:00:19;;;;;;;8.85;1.50;;;10.10;79.70;;;;;;4951931;28;20031;-77
2022/01/09 10:02:57;;;;;;;8.43;1.40;;;10.00;79.40;;;;;;4949015;28;20370;-77
2022/01/09 10:05:25;;;;;;;5.85;1.40;;;10.00;80.00;;;;;;4957676;28;20292;-71
2022/01/09 10:08:09;;;;;;;5.22;1.30;;;10.00;80.10;;;;;;4952778;28;20020;-71
2022/01/09 10:10:36;;;;;;;4.85;1.30;;;10.00;80.50;;;;;;4951819;28;20496;-71
2022/01/09 10:13:07;;;;;;;6.60;1.30;;;10.00;80.10;;;;;;4951310;28;20043;-64
2022/01/09 10:15:49;;;;;;;6.30;1.08;;;10.20;81.10;;;;;;4962168;28;20035;-64
2022/01/09 10:18:45;;;;;;;6.90;1.20;;;10.30;80.30;;;;;;4955938;28;20507;-64
2022/01/09 10:21:18;;;;;;;5.50;1.17;;;10.40;80.70;;;;;;4942530;28;20109;-64
2022/01/09 10:24:08;;;;;;;5.28;1.23;;;10.50;80.40;;;;;;4952729;28;20454;-64
2022/01/09 10:26:37;;;;;;;6.55;1.30;;;10.70;80.70;;;;;;4957366;28;20492;-64
2022/01/09 10:29:06;;;;;;;3.95;1.00;;;10.80;79.90;;;;;;4957777;28;20031;-64
2022/01/09 10:31:43;;;;;;;4.80;1.10;;;10.80;79.70;;;;;;4955785;28;20442;-64
2022/01/09 10:34:10;;;;;;;6.72;1.50;;;10.90;79.30;;;;;;4956171;28;20019;-62
2022/01/09 10:36:51;;;;;;;5.70;1.10;;;10.90;79.30;;;;;;4956491;28;20487;-61
2022/01/09 10:39:36;;;;;;;5.72;1.08;;;11.00;79.60;;;;;;4955931;28;20051;-61
2022/01/09 10:42:03;;;;;;;3.42;1.02;;;11.10;79.30;;;;;;4940022;28;20131;-61
2022/01/09 10:44:35;;;;;;;5.78;1.00;;;11.10;79.20;;;;;;4954649;28;20029;-63
2022/01/09 10:47:12;;;;;;;5.45;1.45;;;11.30;78.80;;;;;;4955991;28;20038;-62
2022/01/09 10:49:50;;;;;;;4.22;1.02;;;11.40;78.60;;;;;;4956016;28;20041;-63
2022/01/09 10:52:25;;;;;;;4.93;0.90;;;11.50;78.40;;;;;;4956240;28;20522;-62
2022/01/09 10:54:53;;;;;;;3.38;0.80;;;11.50;78.00;;;;;;4956446;28;20030;-71
2022/01/09 10:57:28;;;;;;;3.33;0.90;;;11.40;77.60;;;;;;4955638;28;20026;-73
2022/01/09 11:00:08;;;;;;;3.13;0.90;;;11.30;77.20;;;;;;4938066;28;20140;-74
2022/01/09 11:02:34;;;;;;;3.63;1.27;;;11.30;78.80;;;;;;4953310;28;20034;-71
2022/01/09 11:05:00;;;;;;;4.07;0.75;;;11.20;77.30;;;;;;4955495;28;20110;-72
2022/01/09 11:07:26;;;;;;;3.47;0.60;;;11.10;77.40;;;;;;4956160;28;20098;-76
2022/01/09 11:09:52;;;;;;;3.38;0.70;;;11.10;78.40;;;;;;4956095;28;20038;-70
2022/01/09 11:12:20;;;;;;;2.85;0.85;;;11.20;78.00;;;;;;4945496;28;20438;-75
2022/01/09 11:14:49;;;;;;;3.45;1.08;;;11.20;77.80;;;;;;4959103;28;20024;-78
2022/01/09 11:17:17;;;;;;;3.28;0.93;;;11.20;77.50;;;;;;4984148;28;20396;-78
2022/01/09 11:19:43;;;;;;;3.05;0.90;;;11.20;77.80;;;;;;4951310;28;20028;-77
2022/01/09 11:22:12;;;;;;;2.50;0.70;;;11.10;78.10;;;;;;4963003;28;20037;-74
2022/01/09 11:25:02;;;;;;;3.67;0.90;;;11.20;77.60;;;;;;4951412;28;20407;-73
2022/01/09 11:27:43;;;;;;;3.50;0.80;;;11.10;77.60;;;;;;4955715;28;20026;-72
2022/01/09 11:30:19;;;;;;;1.70;0.63;;;11.20;78.00;;;;;;4955363;28;20036;-73
2022/01/09 11:33:26;;;;;;;5.38;0.95;;;11.20;77.50;;;;;;4952431;28;20547;-73
2022/01/09 11:36:20;;;;;;;4.30;1.10;;;11.20;77.40;;;;;;4935201;28;20062;-73
2022/01/09 11:39:11;;;;;;;4.07;1.30;;;11.10;77.20;;;;;;4960120;28;20030;-74
2022/01/09 11:41:39;;;;;;;4.47;1.30;;;11.10;77.60;;;;;;4964869;28;20030;-73
2022/01/09 11:44:09;;;;;;;4.13;1.00;;;11.00;78.60;;;;;;4956863;28;20038;-73
2022/01/09 11:46:53;;;;;;;5.03;1.33;;;11.00;78.00;;;;;;4954640;28;20028;-73
2022/01/09 11:49:20;;;;;;;5.85;1.30;;;11.00;77.60;;;;;;4954944;28;20038;-72
2022/01/09 11:51:55;;;;;;;3.58;1.30;;;10.90;77.80;;;;;;4954200;28;20035;-74
2022/01/09 11:54:22;;;;;;;6.63;1.10;;;10.90;77.90;;;;;;4954622;28;20034;-73
2022/01/09 11:56:55;;;;;;;6.70;1.40;;;10.80;78.20;;;;;;4934857;28;20016;-73
2022/01/09 11:59:23;;;;;;;6.05;1.35;;;10.80;78.10;;;;;;4964261;28;20035;-73
2022/01/09 12:01:55;;;;;;;5.28;1.33;;;10.80;78.50;;;;;;4953408;28;20039;-73
2022/01/09 12:04:33;;;;;;;6.68;1.40;;;10.70;78.90;;;;;;4954001;28;20064;-73
2022/01/09 12:07:10;;;;;;;7.18;1.27;;;10.70;78.60;;;;;;4954038;28;20031;-73
2022/01/09 12:09:46;;;;;;;5.32;1.13;;;10.80;78.90;;;;;;4950047;28;20073;-73
2022/01/09 12:12:13;;;;;;;8.63;1.90;;;10.80;79.30;;;;;;4946522;28;20079;-75
2022/01/09 12:17:21;;;;;;;7.30;1.70;;;10.80;78.70;;;;;;4990960;28;20042;-73
2022/01/09 12:20:11;;;;;;;8.93;1.60;;;10.70;78.80;;;;;;4954501;28;20435;-73
2022/01/09 12:22:49;;;;;;;7.72;1.40;;;10.80;79.10;;;;;;4954166;28;20027;-72
2022/01/09 12:25:27;;;;;;;8.35;1.67;;;10.80;79.30;;;;;;4956810;28;20050;-73
2022/01/09 12:27:56;;;;;;;6.10;1.50;;;11.00;79.50;;;;;;4952132;28;20065;-72
2022/01/09 12:30:51;;;;;;;6.60;1.70;;;11.00;78.90;;;;;;4950529;28;20027;-72
2022/01/09 12:33:26;;;;;;;6.68;1.35;;;11.00;78.60;;;;;;4954112;28;20083;-75
2022/01/09 12:36:15;;;;;;;7.05;1.63;;;11.00;78.30;;;;;;4949068;28;20019;-71
2022/01/09 12:38:51;;;;;;;5.95;1.50;;;11.00;78.50;;;;;;4949389;28;20101;-71
2022/01/09 12:41:22;;;;;;;7.45;1.70;;;11.00;78.50;;;;;;4949436;29;20077;-68
2022/01/09 12:43:56;;;;;;;5.18;1.27;;;11.00;78.20;;;;;;4954978;28;20031;-71
2022/01/09 12:46:22;;;;;;;4.63;1.20;;;10.90;78.50;;;;;;4950989;28;20034;-71
2022/01/09 12:48:54;;;;;;;5.00;1.33;;;10.90;78.50;;;;;;4953581;28;20019;-70
2022/01/09 12:51:20;;;;;;;6.20;1.75;;;10.90;78.30;;;;;;5006186;28;20062;-72
2022/01/09 12:54:06;;;;;;;4.38;1.10;;;10.80;78.20;;;;;;4948370;28;20058;-68
2022/01/09 12:56:42;;;;;;;8.50;1.50;;;10.70;78.20;;;;;;4964461;28;20030;-68
2022/01/09 12:59:10;;;;;;;4.45;1.35;;;10.70;78.50;;;;;;4955387;28;20102;-68
2022/01/09 13:01:47;;;;;;;5.00;1.15;;;10.70;78.50;;;;;;4954214;28;20031;-67
2022/01/09 13:04:23;;;;;;;5.13;1.33;;;10.70;78.50;;;;;;4953789;28;20023;-68